Time;durP1;ratioP1;P1;durP2;ratioP2;P2;SDS_P1;SDS_P2;PMS_P1;PMS_P2;Temp;Humidity;BMP_temperature;BMP_pressure;BME280_temperature;BME280_humidity;BME280_pressure;Samples;Min_cycle;Max_cycle;Signal;HPM_P1;HPM_P2
2021/09/16 00:01:40;;;;;;;31.10;28.10;;;19.50;1.00;;;;;;5075119;28;20452;-85
2021/09/16 00:04:07;;;;;;;31.60;28.30;;;19.50;1.00;;;;;;5069728;28;20455;-85
2021/09/16 00:06:34;;;;;;;31.43;28.40;;;19.50;1.00;;;;;;5079770;28;20892;-87
2021/09/16 00:09:01;;;;;;;31.37;28.07;;;19.40;1.00;;;;;;5089379;28;20409;-87
2021/09/16 00:11:30;;;;;;;30.47;27.33;;;19.50;1.00;;;;;;5074208;28;21010;-86
2021/09/16 00:13:57;;;;;;;29.50;26.70;;;19.50;1.00;;;;;;5064011;28;20461;-87
2021/09/16 00:16:24;;;;;;;28.67;25.87;;;19.50;1.00;;;;;;5068300;28;20458;-86
2021/09/16 00:18:50;;;;;;;28.00;25.30;;;19.50;1.00;;;;;;5056007;28;22614;-86
2021/09/16 00:21:17;;;;;;;29.87;26.97;;;19.50;1.00;;;;;;5048709;28;20469;-84
2021/09/16 00:23:44;;;;;;;28.93;26.20;;;19.50;1.00;;;;;;5060662;28;20568;-84
2021/09/16 00:26:11;;;;;;;29.40;26.67;;;19.50;1.00;;;;;;5051110;28;20456;-87
2021/09/16 00:28:39;;;;;;;28.20;25.27;;;19.50;1.00;;;;;;5047859;28;20448;-85
2021/09/16 00:31:06;;;;;;;28.70;25.90;;;19.40;1.00;;;;;;5051747;28;20476;-86
2021/09/16 00:33:33;;;;;;;28.23;25.30;;;19.40;1.00;;;;;;5055530;28;20481;-87
2021/09/16 00:36:00;;;;;;;26.83;24.27;;;19.40;1.00;;;;;;5060429;28;20429;-86
2021/09/16 00:38:27;;;;;;;27.00;24.33;;;19.40;1.00;;;;;;5049051;28;20464;-87
2021/09/16 00:40:53;;;;;;;24.67;22.47;;;19.50;1.00;;;;;;5049159;28;20551;-86
2021/09/16 00:43:20;;;;;;;26.50;24.10;;;19.40;1.00;;;;;;5049922;28;22921;-85
2021/09/16 00:45:48;;;;;;;25.80;23.50;;;19.40;1.00;;;;;;5050837;28;20500;-88
2021/09/16 00:48:15;;;;;;;24.30;21.90;;;19.40;1.00;;;;;;5055791;28;20895;-88
2021/09/16 00:50:42;;;;;;;24.77;22.27;;;19.40;1.00;;;;;;5053339;28;20424;-88
2021/09/16 00:53:10;;;;;;;23.50;21.20;;;19.40;1.00;;;;;;5043010;28;21408;-88
2021/09/16 00:55:38;;;;;;;24.93;22.63;;;19.30;1.00;;;;;;5050920;28;20457;-86
2021/09/16 00:58:06;;;;;;;23.93;21.70;;;19.30;1.00;;;;;;5052483;28;20470;-89
2021/09/16 01:00:35;;;;;;;22.57;20.53;;;19.30;1.00;;;;;;5052566;28;20412;-88
2021/09/16 01:03:04;;;;;;;22.00;19.93;;;19.30;1.00;;;;;;5057625;28;20449;-87
2021/09/16 01:05:30;;;;;;;21.87;19.90;;;19.20;1.00;;;;;;5056352;28;20451;-87
2021/09/16 01:07:59;;;;;;;22.03;20.13;;;19.20;1.00;;;;;;5058120;28;20574;-87
2021/09/16 01:10:26;;;;;;;21.33;19.33;;;19.20;1.00;;;;;;5056975;28;20448;-87
2021/09/16 01:12:53;;;;;;;20.77;18.77;;;19.10;1.00;;;;;;5055999;28;20479;-88
2021/09/16 01:15:20;;;;;;;22.70;20.70;;;19.10;1.00;;;;;;5078354;28;20466;-88
2021/09/16 01:17:47;;;;;;;22.90;20.70;;;19.00;1.00;;;;;;5076516;28;20427;-87
2021/09/16 01:20:16;;;;;;;22.10;19.90;;;19.00;1.00;;;;;;5059852;28;20467;-86
2021/09/16 01:22:45;;;;;;;22.63;20.40;;;19.00;1.00;;;;;;5056501;28;20460;-85
2021/09/16 01:25:12;;;;;;;23.10;20.93;;;19.00;1.00;;;;;;5052388;28;20502;-87
2021/09/16 01:27:39;;;;;;;21.00;19.10;;;19.00;1.00;;;;;;5059190;28;20462;-86
2021/09/16 01:30:07;;;;;;;21.87;19.77;;;19.10;1.00;;;;;;5056515;28;21731;-88
2021/09/16 01:32:34;;;;;;;22.60;20.40;;;19.00;1.00;;;;;;5057350;28;21604;-87
2021/09/16 01:35:01;;;;;;;24.63;22.33;;;19.10;1.00;;;;;;5055180;28;20460;-87
2021/09/16 01:37:27;;;;;;;23.90;21.60;;;19.00;1.00;;;;;;5055927;28;20525;-89
2021/09/16 01:39:56;;;;;;;23.43;21.33;;;19.00;1.00;;;;;;5055879;28;21050;-87
2021/09/16 01:42:22;;;;;;;24.10;21.90;;;19.00;1.00;;;;;;5049391;28;20555;-87
2021/09/16 01:44:49;;;;;;;22.27;20.10;;;19.00;1.00;;;;;;5053497;28;20506;-86
2021/09/16 01:47:16;;;;;;;24.17;22.07;;;19.00;1.00;;;;;;5054486;28;20967;-86
2021/09/16 01:49:43;;;;;;;21.97;19.87;;;19.00;1.00;;;;;;5057376;28;20851;-87
2021/09/16 01:52:10;;;;;;;22.73;20.33;;;18.90;1.00;;;;;;5060704;28;20502;-86
2021/09/16 01:54:37;;;;;;;20.83;18.97;;;18.90;1.00;;;;;;5061106;28;20461;-87
2021/09/16 01:57:05;;;;;;;22.03;19.93;;;18.90;1.00;;;;;;5073083;28;20451;-89
2021/09/16 01:59:32;;;;;;;22.00;20.07;;;18.80;1.00;;;;;;5077776;28;20412;-88
2021/09/16 02:01:58;;;;;;;22.87;20.57;;;18.80;1.00;;;;;;5072168;28;20486;-86
2021/09/16 02:04:25;;;;;;;20.67;18.83;;;18.80;1.00;;;;;;5052272;28;20460;-86
2021/09/16 02:06:52;;;;;;;21.37;19.37;;;18.80;1.00;;;;;;5053644;28;20467;-86
2021/09/16 02:09:18;;;;;;;21.37;19.30;;;18.80;1.00;;;;;;5053344;28;20546;-87
2021/09/16 02:11:45;;;;;;;20.77;18.80;;;18.70;1.00;;;;;;5051389;28;20926;-86
2021/09/16 02:14:13;;;;;;;20.93;18.93;;;18.70;1.00;;;;;;5057605;28;21039;-87
2021/09/16 02:16:40;;;;;;;21.23;19.20;;;18.70;1.00;;;;;;5057034;28;20647;-85
2021/09/16 02:19:07;;;;;;;19.53;17.60;;;18.60;1.00;;;;;;5052848;28;20470;-86
2021/09/16 02:21:33;;;;;;;19.33;17.53;;;18.60;1.00;;;;;;5050642;28;21547;-87
2021/09/16 02:24:02;;;;;;;17.70;16.10;;;18.60;1.00;;;;;;5056215;28;21288;-85
2021/09/16 02:26:28;;;;;;;18.40;16.70;;;18.60;1.00;;;;;;5051505;28;20438;-85
2021/09/16 02:28:55;;;;;;;19.23;17.30;;;18.60;1.00;;;;;;5052881;28;21095;-88
2021/09/16 02:31:23;;;;;;;19.13;17.33;;;18.60;1.00;;;;;;5050585;28;20873;-86
2021/09/16 02:33:51;;;;;;;18.97;17.27;;;18.50;1.00;;;;;;5065210;28;20471;-86
2021/09/16 02:36:17;;;;;;;19.10;17.37;;;18.50;1.00;;;;;;5052000;28;20574;-88
2021/09/16 02:38:44;;;;;;;20.83;18.63;;;18.60;1.00;;;;;;5050656;28;20491;-88
2021/09/16 02:41:11;;;;;;;20.40;18.37;;;18.60;1.00;;;;;;5056053;28;21606;-86
2021/09/16 02:43:38;;;;;;;17.50;15.90;;;18.70;1.00;;;;;;5052336;28;20493;-86
2021/09/16 02:46:04;;;;;;;19.30;17.30;;;18.70;1.00;;;;;;5050266;28;20467;-87
2021/09/16 02:48:35;;;;;;;21.87;19.90;;;18.70;1.00;;;;;;5057692;28;20554;-86
2021/09/16 02:51:01;;;;;;;19.47;17.40;;;18.70;1.00;;;;;;5060141;28;20412;-86
2021/09/16 02:53:28;;;;;;;19.33;17.40;;;18.70;1.00;;;;;;5058346;28;20471;-87
2021/09/16 02:55:55;;;;;;;19.67;17.77;;;18.70;1.00;;;;;;5064041;28;21052;-85
2021/09/16 02:58:21;;;;;;;18.90;17.00;;;18.70;1.00;;;;;;5062717;28;20459;-85
2021/09/16 03:00:48;;;;;;;18.43;16.70;;;18.70;1.00;;;;;;5061768;28;20529;-86
2021/09/16 03:03:15;;;;;;;18.70;16.90;;;18.70;1.00;;;;;;5071128;28;20471;-88
2021/09/16 03:05:45;;;;;;;19.07;17.17;;;18.70;1.00;;;;;;5057269;28;20453;-86
2021/09/16 03:08:12;;;;;;;18.47;16.67;;;18.70;1.00;;;;;;5060765;28;20532;-84
2021/09/16 03:10:39;;;;;;;18.87;17.00;;;18.60;1.00;;;;;;5059413;28;20463;-85
2021/09/16 03:13:06;;;;;;;19.30;17.30;;;18.60;1.00;;;;;;5054203;28;21485;-86
2021/09/16 03:15:33;;;;;;;18.13;16.20;;;18.60;1.00;;;;;;5058771;28;20450;-86
2021/09/16 03:18:00;;;;;;;17.90;16.10;;;18.70;1.00;;;;;;5062506;28;20444;-88
2021/09/16 03:20:27;;;;;;;18.30;15.70;;;18.70;1.00;;;;;;5061730;28;20455;-86
2021/09/16 03:22:55;;;;;;;18.80;16.90;;;18.70;1.00;;;;;;5060770;28;20459;-87
2021/09/16 03:25:21;;;;;;;19.77;17.80;;;18.60;1.00;;;;;;5059727;28;20524;-87
2021/09/16 03:27:48;;;;;;;19.90;17.97;;;18.60;1.00;;;;;;5066712;28;21204;-87
2021/09/16 03:30:15;;;;;;;19.93;17.97;;;18.60;1.00;;;;;;5072191;28;21317;-87
2021/09/16 03:32:43;;;;;;;19.90;17.80;;;18.70;1.00;;;;;;5076565;28;20424;-88
2021/09/16 03:35:11;;;;;;;21.97;19.87;;;18.70;1.00;;;;;;5070830;28;20454;-85
2021/09/16 03:37:37;;;;;;;21.63;19.43;;;18.70;1.00;;;;;;5068268;28;21330;-84
2021/09/16 03:40:07;;;;;;;22.03;19.77;;;18.70;1.00;;;;;;5071921;28;20449;-85
2021/09/16 03:42:35;;;;;;;21.40;19.20;;;18.70;1.00;;;;;;5066406;28;20435;-85
2021/09/16 03:45:02;;;;;;;22.00;19.70;;;18.70;1.00;;;;;;5068757;28;20435;-84
2021/09/16 03:47:29;;;;;;;23.27;20.87;;;18.70;1.00;;;;;;5090985;28;20443;-88
2021/09/16 03:49:55;;;;;;;26.33;23.57;;;18.70;1.00;;;;;;5093381;28;20457;-87
2021/09/16 03:52:23;;;;;;;23.87;21.37;;;18.70;1.00;;;;;;5076250;28;20525;-86
2021/09/16 03:54:52;;;;;;;22.77;20.47;;;18.70;1.00;;;;;;5081254;28;20400;-85
2021/09/16 03:57:20;;;;;;;26.03;23.30;;;18.70;1.00;;;;;;5071751;28;20460;-88
2021/09/16 03:59:47;;;;;;;27.23;24.40;;;18.80;1.00;;;;;;5065800;28;20543;-86
2021/09/16 04:02:13;;;;;;;27.50;24.60;;;18.70;1.00;;;;;;5066186;28;20459;-86
2021/09/16 04:04:40;;;;;;;32.77;27.23;;;18.70;1.00;;;;;;5068388;28;20500;-88
2021/09/16 04:07:07;;;;;;;31.97;28.57;;;18.70;1.00;;;;;;5070316;28;20493;-87
2021/09/16 04:09:34;;;;;;;31.37;27.87;;;18.70;1.00;;;;;;5066631;28;20554;-87
2021/09/16 04:12:00;;;;;;;33.33;29.17;;;18.70;1.00;;;;;;5067707;28;20727;-86
2021/09/16 04:14:29;;;;;;;32.13;28.80;;;18.70;1.00;;;;;;5071013;28;20490;-87
2021/09/16 04:16:55;;;;;;;33.37;29.00;;;18.70;1.00;;;;;;5070839;28;20478;-86
2021/09/16 04:19:22;;;;;;;34.07;29.73;;;18.70;1.00;;;;;;5070392;28;21176;-85
2021/09/16 04:21:49;;;;;;;36.70;31.07;;;18.80;1.00;;;;;;5062995;28;20463;-79
2021/09/16 04:24:18;;;;;;;34.20;29.60;;;18.70;1.00;;;;;;5058447;28;20455;-78
2021/09/16 04:26:45;;;;;;;36.23;30.57;;;18.70;1.00;;;;;;5075599;28;20412;-77
2021/09/16 04:29:13;;;;;;;34.00;28.70;;;18.60;1.00;;;;;;5074323;28;20479;-76
2021/09/16 04:31:41;;;;;;;33.10;29.47;;;18.50;1.00;;;;;;5073684;28;20431;-77
2021/09/16 04:34:09;;;;;;;33.10;28.27;;;18.50;1.00;;;;;;5062042;28;20539;-79
2021/09/16 04:36:37;;;;;;;31.30;27.90;;;18.50;1.00;;;;;;5067801;28;20462;-77
2021/09/16 04:39:05;;;;;;;31.97;28.57;;;18.40;1.00;;;;;;5055600;28;20444;-78
2021/09/16 04:41:33;;;;;;;31.53;28.00;;;18.40;1.00;;;;;;5061146;28;20453;-79
2021/09/16 04:44:00;;;;;;;31.20;27.50;;;18.40;1.00;;;;;;5074956;28;20440;-76
2021/09/16 04:46:27;;;;;;;30.40;27.13;;;18.40;1.00;;;;;;5072433;28;20464;-76
2021/09/16 04:48:55;;;;;;;33.97;29.10;;;18.30;1.00;;;;;;5071177;28;20501;-77
2021/09/16 04:51:23;;;;;;;34.33;29.10;;;18.30;1.00;;;;;;5073853;28;20417;-77
2021/09/16 04:53:50;;;;;;;34.13;30.47;;;18.40;1.00;;;;;;5070461;28;20421;-78
2021/09/16 04:56:17;;;;;;;32.23;28.70;;;18.40;1.00;;;;;;5075101;28;20550;-79
2021/09/16 04:58:44;;;;;;;30.93;27.50;;;18.40;1.00;;;;;;5080488;28;20412;-78
2021/09/16 05:01:10;;;;;;;29.77;25.50;;;18.50;1.00;;;;;;5087559;28;20428;-78
2021/09/16 05:03:37;;;;;;;31.97;28.57;;;18.50;1.00;;;;;;5083342;28;21042;-79
2021/09/16 05:06:05;;;;;;;27.23;24.30;;;18.50;1.00;;;;;;5085908;28;20457;-78
2021/09/16 05:08:32;;;;;;;26.40;23.57;;;18.50;1.00;;;;;;5087529;28;20400;-78
2021/09/16 05:11:00;;;;;;;26.03;23.23;;;18.50;1.00;;;;;;5082323;28;20479;-79
2021/09/16 05:13:26;;;;;;;26.60;23.20;;;18.50;1.00;;;;;;5081302;28;20440;-79
2021/09/16 05:15:53;;;;;;;27.37;24.30;;;18.50;1.00;;;;;;5085906;28;20443;-76
2021/09/16 05:18:20;;;;;;;26.87;24.00;;;18.50;1.00;;;;;;5087220;28;20406;-76
2021/09/16 05:20:47;;;;;;;26.27;23.73;;;18.60;1.00;;;;;;5091695;28;20526;-77
2021/09/16 05:23:15;;;;;;;29.77;26.67;;;18.60;1.00;;;;;;5086866;28;20428;-76
2021/09/16 05:25:42;;;;;;;27.00;24.20;;;18.70;1.00;;;;;;5085781;28;20408;-77
2021/09/16 05:28:08;;;;;;;30.73;24.77;;;18.70;1.00;;;;;;5086061;28;20464;-75
2021/09/16 05:30:36;;;;;;;26.40;23.63;;;18.70;1.00;;;;;;5090004;28;20594;-76
2021/09/16 05:33:07;;;;;;;26.17;23.47;;;18.70;1.00;;;;;;5085945;28;20412;-77
2021/09/16 05:35:34;;;;;;;26.40;21.93;;;18.70;1.00;;;;;;5088544;28;20460;-78
2021/09/16 05:38:01;;;;;;;26.43;21.87;;;18.60;1.00;;;;;;5087811;28;20395;-78
2021/09/16 05:40:29;;;;;;;23.03;20.80;;;18.60;1.00;;;;;;5085219;28;21062;-78
2021/09/16 05:42:55;;;;;;;20.73;18.27;;;18.50;1.00;;;;;;5087107;28;20454;-77
2021/09/16 05:45:22;;;;;;;20.10;18.10;;;18.50;1.00;;;;;;5082468;28;20571;-77
2021/09/16 05:47:49;;;;;;;20.53;18.03;;;18.50;1.00;;;;;;5082593;28;20412;-77
2021/09/16 05:50:15;;;;;;;19.90;17.90;;;18.50;1.00;;;;;;5084223;28;22150;-77
2021/09/16 05:52:42;;;;;;;20.20;17.93;;;18.50;1.00;;;;;;5082964;28;20450;-77
2021/09/16 05:55:10;;;;;;;18.93;16.93;;;18.50;1.00;;;;;;5080255;28;20434;-79
2021/09/16 05:57:38;;;;;;;16.07;14.47;;;18.50;1.00;;;;;;5084859;28;20432;-78
2021/09/16 06:00:06;;;;;;;14.50;13.00;;;18.50;1.00;;;;;;5082890;28;20444;-77
2021/09/16 06:02:32;;;;;;;15.67;14.03;;;18.40;1.00;;;;;;5081851;28;20443;-76
2021/09/16 06:04:59;;;;;;;16.57;14.33;;;18.40;1.00;;;;;;5079421;28;20451;-76
2021/09/16 06:07:26;;;;;;;12.00;10.87;;;18.50;1.00;;;;;;5068170;28;20492;-77
2021/09/16 06:09:52;;;;;;;10.57;9.47;;;18.40;1.00;;;;;;5074901;28;20423;-77
2021/09/16 06:12:19;;;;;;;10.80;8.53;;;18.30;1.00;;;;;;5071804;28;20566;-77
2021/09/16 06:14:47;;;;;;;10.10;9.10;;;18.30;1.00;;;;;;5065490;28;21061;-78
2021/09/16 06:17:14;;;;;;;11.20;9.83;;;18.40;1.00;;;;;;5073741;28;20391;-78
2021/09/16 06:19:41;;;;;;;12.00;10.80;;;18.50;1.00;;;;;;5067910;28;20457;-77
2021/09/16 06:22:08;;;;;;;16.40;11.20;;;18.60;1.00;;;;;;5070601;28;20435;-78
2021/09/16 06:24:35;;;;;;;15.23;11.43;;;18.60;1.00;;;;;;5069978;28;20443;-79
2021/09/16 06:27:02;;;;;;;13.97;11.70;;;18.70;1.00;;;;;;5069414;28;20447;-79
2021/09/16 06:29:29;;;;;;;14.00;12.57;;;18.80;1.00;;;;;;5065053;28;20455;-79
2021/09/16 06:31:58;;;;;;;14.03;12.63;;;18.90;1.00;;;;;;5071539;28;20438;-78
2021/09/16 06:34:25;;;;;;;12.70;11.50;;;18.90;1.00;;;;;;5070849;28;20444;-82
2021/09/16 06:36:52;;;;;;;13.67;12.27;;;19.00;1.00;;;;;;5060549;28;20461;-79
2021/09/16 06:39:19;;;;;;;11.43;10.33;;;19.00;1.00;;;;;;5061866;28;20616;-78
2021/09/16 06:41:46;;;;;;;11.97;10.90;;;19.00;1.00;;;;;;5065917;28;20447;-78
2021/09/16 06:44:13;;;;;;;11.87;10.77;;;18.90;1.00;;;;;;5062459;28;20435;-78
2021/09/16 06:46:39;;;;;;;12.10;10.80;;;18.90;1.00;;;;;;5057223;28;20536;-78
2021/09/16 06:49:08;;;;;;;12.77;11.33;;;18.90;1.00;;;;;;5060428;28;20451;-76
2021/09/16 06:51:35;;;;;;;11.30;9.93;;;19.00;1.00;;;;;;5060589;28;20480;-79
2021/09/16 06:54:03;;;;;;;11.83;10.00;;;19.00;1.00;;;;;;5053272;28;20514;-78
2021/09/16 06:56:30;;;;;;;12.57;10.80;;;18.90;1.00;;;;;;5053982;28;20554;-78
2021/09/16 06:58:56;;;;;;;10.93;9.93;;;18.90;1.00;;;;;;5054878;28;20516;-77
2021/09/16 07:01:23;;;;;;;12.90;11.40;;;18.90;1.00;;;;;;5056584;28;20564;-77
2021/09/16 07:03:52;;;;;;;12.47;10.77;;;18.70;1.00;;;;;;5055667;28;20444;-78
2021/09/16 07:06:22;;;;;;;11.37;10.17;;;18.70;1.00;;;;;;5062761;28;21675;-77
2021/09/16 07:08:49;;;;;;;10.07;9.07;;;18.70;1.00;;;;;;5061804;28;20473;-78
2021/09/16 07:11:16;;;;;;;11.10;10.10;;;18.70;1.00;;;;;;5063733;28;20457;-79
2021/09/16 07:13:42;;;;;;;10.37;9.10;;;18.70;1.00;;;;;;5061029;28;21132;-78
2021/09/16 07:16:09;;;;;;;11.37;9.97;;;18.60;1.00;;;;;;5063132;28;20466;-78
2021/09/16 07:18:36;;;;;;;11.30;9.03;;;18.60;1.00;;;;;;5075772;28;20463;-78
2021/09/16 07:21:03;;;;;;;11.70;10.60;;;18.50;1.00;;;;;;5057329;28;20905;-77
2021/09/16 07:23:31;;;;;;;11.30;9.87;;;18.50;1.00;;;;;;5056405;28;20445;-78
2021/09/16 07:25:57;;;;;;;13.23;10.67;;;18.40;1.00;;;;;;5053443;28;20554;-78
2021/09/16 07:28:24;;;;;;;9.23;8.33;;;18.50;1.00;;;;;;5056751;28;20439;-78
2021/09/16 07:30:51;;;;;;;10.80;8.60;;;18.50;1.00;;;;;;5056117;28;20435;-77
2021/09/16 07:33:18;;;;;;;9.67;8.77;;;18.50;1.00;;;;;;5052319;28;20478;-79
2021/09/16 07:35:45;;;;;;;33.30;30.40;;;18.60;1.00;;;;;;5052381;28;20448;-79
2021/09/16 07:38:12;;;;;;;7.63;6.83;;;18.80;1.00;;;;;;5054908;28;20463;-78
2021/09/16 07:40:40;;;;;;;9.90;8.47;;;19.00;1.00;;;;;;5057140;28;20528;-78
2021/09/16 07:43:07;;;;;;;6.87;6.13;;;19.00;1.00;;;;;;5051759;28;20467;-78
2021/09/16 07:45:34;;;;;;;7.30;6.63;;;19.10;1.00;;;;;;5054874;28;20777;-76
2021/09/16 07:48:01;;;;;;;8.00;6.77;;;19.20;1.00;;;;;;5056838;28;20467;-78
2021/09/16 07:50:28;;;;;;;7.17;6.47;;;19.40;1.00;;;;;;5054823;28;21775;-78
2021/09/16 07:52:54;;;;;;;6.13;5.63;;;19.60;1.00;;;;;;5050747;28;20444;-78
2021/09/16 07:55:21;;;;;;;6.17;5.57;;;19.60;1.00;;;;;;5049544;28;20476;-77
2021/09/16 07:57:49;;;;;;;6.13;5.40;;;19.60;1.00;;;;;;5054850;28;20547;-78
2021/09/16 08:00:16;;;;;;;5.70;5.10;;;19.70;1.00;;;;;;5049053;28;20490;-77
2021/09/16 08:02:47;;;;;;;5.90;5.03;;;19.70;1.00;;;;;;5053826;28;20452;-77
2021/09/16 08:05:15;;;;;;;6.07;4.67;;;19.50;1.00;;;;;;5052558;28;20505;-78
2021/09/16 08:07:42;;;;;;;6.07;5.27;;;19.50;1.00;;;;;;5055310;28;20455;-79
2021/09/16 08:10:10;;;;;;;6.97;4.73;;;19.70;1.00;;;;;;5052148;28;20468;-81
2021/09/16 08:12:37;;;;;;;5.50;4.27;;;19.90;1.00;;;;;;5052724;28;20610;-78
2021/09/16 08:15:06;;;;;;;5.50;4.33;;;20.20;1.00;;;;;;5054622;28;20467;-78
2021/09/16 08:17:33;;;;;;;6.07;4.37;;;20.60;1.00;;;;;;5051808;28;20903;-78
2021/09/16 08:20:00;;;;;;;4.90;4.30;;;20.90;1.00;;;;;;5055577;28;20436;-78
2021/09/16 08:22:27;;;;;;;5.27;4.83;;;21.20;1.00;;;;;;5054113;28;21027;-78
2021/09/16 08:24:53;;;;;;;5.27;4.60;;;21.30;1.00;;;;;;5066915;28;20486;-78
2021/09/16 08:27:20;;;;;;;3.53;3.23;;;21.40;1.00;;;;;;5050666;28;20537;-81
2021/09/16 08:29:47;;;;;;;4.40;3.53;;;21.40;1.00;;;;;;5054743;28;21063;-78
2021/09/16 08:32:18;;;;;;;4.57;3.30;;;21.30;1.00;;;;;;5052712;28;21763;-77
2021/09/16 08:34:46;;;;;;;4.13;3.73;;;21.20;1.00;;;;;;5055424;28;20477;-77
2021/09/16 08:37:13;;;;;;;6.20;5.33;;;21.20;1.00;;;;;;5053940;28;20462;-77
2021/09/16 08:39:39;;;;;;;6.23;3.93;;;21.30;1.00;;;;;;5054558;28;20436;-78
2021/09/16 08:42:06;;;;;;;4.40;2.40;;;21.30;1.00;;;;;;5055398;28;22066;-78
2021/09/16 08:44:33;;;;;;;4.97;2.60;;;21.30;1.00;;;;;;5055933;28;20461;-79
2021/09/16 08:47:00;;;;;;;4.40;2.40;;;21.30;1.00;;;;;;5053358;28;20983;-78
2021/09/16 08:49:28;;;;;;;6.20;2.23;;;21.30;1.00;;;;;;5058239;28;20481;-78
2021/09/16 08:51:56;;;;;;;3.70;2.50;;;21.10;1.00;;;;;;5056708;28;20446;-78
2021/09/16 08:54:24;;;;;;;6.73;3.00;;;21.10;1.00;;;;;;5054850;28;20469;-78
2021/09/16 08:56:51;;;;;;;3.47;2.50;;;20.90;1.00;;;;;;5053876;28;20453;-77
2021/09/16 08:59:18;;;;;;;3.00;2.27;;;20.90;1.00;;;;;;5052988;28;20581;-77
2021/09/16 09:01:47;;;;;;;3.87;2.20;;;21.10;1.00;;;;;;5061751;28;20522;-77
2021/09/16 09:04:14;;;;;;;2.93;2.43;;;21.40;1.00;;;;;;5052090;28;20448;-77
2021/09/16 09:06:43;;;;;;;2.80;1.87;;;21.70;1.00;;;;;;5052233;28;20493;-78
2021/09/16 09:09:15;;;;;;;2.33;1.80;;;21.90;1.00;;;;;;5052276;28;20447;-78
2021/09/16 09:11:57;;;;;;;2.73;1.30;;;21.90;1.00;;;;;;5070378;28;20562;-78
2021/09/16 09:14:28;;;;;;;2.37;1.87;;;21.70;1.00;;;;;;5055162;28;20466;-77
2021/09/16 09:16:55;;;;;;;3.57;2.30;;;21.50;1.00;;;;;;5057932;28;20458;-77
2021/09/16 09:19:25;;;;;;;3.83;2.37;;;21.20;1.00;;;;;;5060023;28;20457;-77
2021/09/16 09:21:58;;;;;;;2.40;2.20;;;21.20;1.00;;;;;;5057088;28;20465;-77
2021/09/16 09:24:33;;;;;;;3.57;2.57;;;21.20;1.00;;;;;;5052616;28;20916;-78
2021/09/16 09:27:01;;;;;;;6.83;2.60;;;21.20;1.00;;;;;;5045573;28;20458;-77
2021/09/16 09:29:28;;;;;;;2.87;2.57;;;21.70;1.00;;;;;;5048211;28;21039;-78
2021/09/16 09:31:58;;;;;;;4.90;2.00;;;22.90;1.00;;;;;;5050049;28;21432;-77
2021/09/16 09:34:31;;;;;;;2.80;2.20;;;23.30;1.00;;;;;;5050706;28;20512;-78
2021/09/16 09:37:13;;;;;;;4.47;2.80;;;22.80;1.00;;;;;;5053155;28;20459;-77
2021/09/16 09:39:44;;;;;;;2.80;1.90;;;22.20;1.00;;;;;;5050009;28;20434;-79
2021/09/16 09:42:19;;;;;;;4.27;2.40;;;21.60;1.00;;;;;;5044751;28;20532;-79
2021/09/16 09:44:46;;;;;;;2.97;2.10;;;21.20;1.00;;;;;;5051795;28;20452;-78
2021/09/16 09:47:13;;;;;;;2.53;1.70;;;20.70;1.00;;;;;;5049437;28;20480;-78
2021/09/16 09:49:40;;;;;;;6.00;1.80;;;20.40;1.00;;;;;;5049146;28;20750;-78
2021/09/16 09:52:09;;;;;;;2.40;1.40;;;20.10;1.00;;;;;;5047327;28;20447;-78
2021/09/16 09:54:37;;;;;;;2.97;1.67;;;19.80;1.00;;;;;;5046949;28;20445;-77
2021/09/16 09:57:12;;;;;;;2.27;1.80;;;19.60;1.00;;;;;;5049016;28;20462;-78
2021/09/16 10:00:00;;;;;;;2.47;1.80;;;19.60;1.00;;;;;;5051117;28;22258;-77
2021/09/16 10:02:30;;;;;;;4.30;1.70;;;19.70;1.00;;;;;;5048101;28;20464;-77
2021/09/16 10:04:57;;;;;;;5.43;1.40;;;20.20;1.00;;;;;;5053666;28;20532;-78
2021/09/16 10:07:34;;;;;;;1.80;1.40;;;21.20;1.00;;;;;;5053406;28;20530;-79
2021/09/16 10:10:04;;;;;;;2.90;1.40;;;22.50;1.00;;;;;;5053695;28;20456;-80
2021/09/16 10:12:31;;;;;;;2.87;1.10;;;24.40;1.00;;;;;;5049390;28;20468;-77
2021/09/16 10:14:58;;;;;;;2.60;1.30;;;26.30;1.00;;;;;;5046922;28;20432;-77
2021/09/16 10:17:25;;;;;;;3.27;1.50;;;25.70;1.00;;;;;;5060176;28;20491;-77
2021/09/16 10:19:55;;;;;;;2.43;1.10;;;24.50;1.00;;;;;;5057347;28;20455;-77
2021/09/16 10:22:23;;;;;;;4.10;1.20;;;23.40;1.00;;;;;;5056916;28;20446;-78
2021/09/16 10:24:53;;;;;;;4.10;1.33;;;22.50;1.00;;;;;;5057773;28;20459;-78
2021/09/16 10:27:28;;;;;;;3.10;1.23;;;22.20;1.00;;;;;;5058347;28;20529;-76
2021/09/16 10:29:54;;;;;;;2.17;1.30;;;21.90;1.00;;;;;;5071889;28;20450;-77
2021/09/16 10:32:37;;;;;;;2.63;1.43;;;22.00;1.00;;;;;;5056172;28;20472;-78
2021/09/16 10:35:21;;;;;;;2.10;1.10;;;21.90;1.00;;;;;;5056073;28;20451;-79
2021/09/16 10:37:48;;;;;;;3.00;1.30;;;21.60;1.00;;;;;;5057538;28;20469;-79
2021/09/16 10:40:22;;;;;;;2.53;1.50;;;21.50;1.00;;;;;;5057607;28;21402;-76
2021/09/16 10:42:51;;;;;;;3.27;0.90;;;21.20;1.00;;;;;;5054309;28;20413;-78
2021/09/16 10:45:29;;;;;;;2.30;1.13;;;21.10;1.00;;;;;;5056696;28;21043;-79
2021/09/16 10:48:32;;;;;;;1.60;1.00;;;20.90;1.00;;;;;;5059358;28;20943;-77
2021/09/16 10:51:03;;;;;;;3.70;1.30;;;20.90;1.00;;;;;;5063010;28;20444;-77
2021/09/16 10:53:36;;;;;;;3.83;0.90;;;20.70;1.00;;;;;;5058465;28;20462;-78
2021/09/16 10:56:06;;;;;;;3.63;1.27;;;20.50;1.00;;;;;;5062052;28;20456;-76
2021/09/16 10:58:33;;;;;;;4.90;2.47;;;20.50;1.00;;;;;;5063233;28;22103;-79
2021/09/16 11:01:00;;;;;;;4.33;1.20;;;20.40;1.00;;;;;;5061959;28;20568;-78
2021/09/16 11:03:27;;;;;;;1.87;1.27;;;20.40;1.00;;;;;;5061144;28;21418;-78
2021/09/16 11:05:58;;;;;;;3.57;1.30;;;20.50;1.00;;;;;;5065076;28;21070;-78
2021/09/16 11:08:59;;;;;;;2.10;1.10;;;20.60;1.00;;;;;;5063606;28;20517;-78
2021/09/16 11:11:48;;;;;;;3.10;1.03;;;20.60;1.00;;;;;;5061724;28;20454;-78
2021/09/16 11:14:32;;;;;;;2.00;1.30;;;20.60;1.00;;;;;;5058962;28;20449;-77
2021/09/16 11:17:01;;;;;;;2.57;1.30;;;20.60;1.00;;;;;;5057831;28;20482;-78
2021/09/16 11:19:28;;;;;;;4.13;2.00;;;20.70;1.00;;;;;;5057198;28;20543;-80
2021/09/16 11:22:07;;;;;;;2.00;1.30;;;20.70;1.00;;;;;;5060022;28;20540;-77
2021/09/16 11:24:37;;;;;;;5.87;2.23;;;20.80;1.00;;;;;;5059276;28;20428;-77
2021/09/16 11:27:06;;;;;;;3.03;1.27;;;20.90;1.00;;;;;;5054697;28;20543;-77
2021/09/16 11:29:45;;;;;;;4.30;1.40;;;21.00;1.00;;;;;;5057469;28;20483;-78
2021/09/16 11:32:12;;;;;;;3.20;1.57;;;21.00;1.00;;;;;;5058043;28;20517;-79
2021/09/16 11:34:54;;;;;;;3.60;1.60;;;20.90;1.00;;;;;;5056552;28;20547;-78
2021/09/16 11:37:28;;;;;;;2.10;1.33;;;21.00;1.00;;;;;;5055901;28;20457;-77
2021/09/16 11:40:04;;;;;;;1.83;1.10;;;20.80;1.00;;;;;;5051717;28;20456;-77
2021/09/16 11:42:34;;;;;;;3.73;1.10;;;20.60;1.00;;;;;;5054593;28;20459;-77
2021/09/16 11:45:05;;;;;;;5.20;1.40;;;20.60;1.00;;;;;;5054399;28;20445;-78
2021/09/16 11:47:38;;;;;;;6.47;1.73;;;20.50;1.00;;;;;;5053800;28;20465;-78
2021/09/16 11:50:06;;;;;;;1.83;1.10;;;20.40;1.00;;;;;;5057953;28;20449;-77
2021/09/16 11:52:33;;;;;;;2.57;1.53;;;20.20;1.00;;;;;;5050820;28;20551;-76
2021/09/16 11:55:10;;;;;;;2.40;1.00;;;20.00;1.00;;;;;;5052017;28;20920;-77
2021/09/16 11:57:58;;;;;;;2.77;2.00;;;19.90;1.00;;;;;;5055442;28;20448;-78
2021/09/16 12:00:28;;;;;;;3.10;1.10;;;19.70;1.00;;;;;;5057725;28;21231;-78
2021/09/16 12:02:55;;;;;;;5.30;4.00;;;19.70;1.00;;;;;;5053205;28;20448;-76
2021/09/16 12:05:43;;;;;;;2.37;1.10;;;19.70;1.00;;;;;;5051935;28;20465;-78
2021/09/16 12:08:12;;;;;;;1.40;0.80;;;19.60;1.00;;;;;;5051625;28;20408;-77
2021/09/16 12:10:42;;;;;;;4.00;1.47;;;19.60;1.00;;;;;;5055194;28;21188;-78
2021/09/16 12:13:14;;;;;;;4.00;0.93;;;19.60;1.00;;;;;;5051201;28;20573;-78
2021/09/16 12:15:41;;;;;;;3.50;1.53;;;19.50;1.00;;;;;;5054738;28;20492;-80
2021/09/16 12:18:08;;;;;;;2.70;1.93;;;19.40;1.00;;;;;;5051963;28;20484;-79
2021/09/16 12:20:36;;;;;;;5.80;1.73;;;19.40;1.00;;;;;;5062686;28;20463;-79
2021/09/16 12:23:04;;;;;;;4.43;1.60;;;19.40;1.00;;;;;;5052267;28;20452;-78
2021/09/16 12:25:33;;;;;;;3.13;1.90;;;19.40;1.00;;;;;;5050006;28;20431;-79
2021/09/16 12:28:07;;;;;;;4.30;1.70;;;19.60;1.00;;;;;;5050538;28;20584;-77
2021/09/16 12:30:37;;;;;;;2.40;1.10;;;19.70;1.00;;;;;;5049955;28;20467;-78
2021/09/16 12:33:45;;;;;;;4.50;1.30;;;20.00;1.00;;;;;;5046906;28;20542;-78
2021/09/16 12:36:20;;;;;;;2.33;1.13;;;20.40;1.00;;;;;;5032108;28;20543;-80
2021/09/16 12:38:50;;;;;;;2.00;1.07;;;20.70;1.00;;;;;;5051429;28;20992;-78
2021/09/16 12:41:29;;;;;;;2.87;1.00;;;20.90;1.00;;;;;;5049629;28;20471;-78
2021/09/16 12:44:03;;;;;;;2.67;1.30;;;21.00;1.00;;;;;;5054435;28;20487;-76
2021/09/16 12:46:40;;;;;;;2.90;1.23;;;21.00;1.00;;;;;;5049828;28;21401;-78
2021/09/16 12:49:07;;;;;;;2.90;1.03;;;21.10;1.00;;;;;;5053187;28;20445;-78
2021/09/16 12:51:34;;;;;;;1.47;0.73;;;21.10;1.00;;;;;;5052853;28;20461;-79
2021/09/16 12:54:02;;;;;;;2.60;1.53;;;21.10;1.00;;;;;;5050168;28;20433;-78